Time;durP1;ratioP1;P1;durP2;ratioP2;P2;SDS_P1;SDS_P2;PMS_P1;PMS_P2;Temp;Humidity;BMP_temperature;BMP_pressure;BME280_temperature;BME280_humidity;BME280_pressure;Samples;Min_cycle;Max_cycle;Signal;HPM_P1;HPM_P2
2024/03/28 00:02:02;;;;;;;0.30;0.20;;;15.40;68.40;;;;;;5023073;28;20414;-79
2024/03/28 00:04:28;;;;;;;0.30;0.13;;;15.30;68.20;;;;;;5026389;28;20041;-79
2024/03/28 00:06:54;;;;;;;0.10;0.10;;;15.30;68.60;;;;;;5004618;28;20060;-79
2024/03/28 00:09:20;;;;;;;0.15;0.10;;;15.30;68.20;;;;;;5000348;28;20530;-79
2024/03/28 00:11:45;;;;;;;0.15;0.10;;;15.30;68.30;;;;;;4993476;28;20447;-79
2024/03/28 00:14:11;;;;;;;0.10;0.10;;;15.30;68.50;;;;;;5025556;28;20176;-79
2024/03/28 00:16:37;;;;;;;0.05;0.05;;;15.30;68.30;;;;;;5028032;28;20041;-79
2024/03/28 00:19:02;;;;;;;0.10;0.10;;;15.30;68.40;;;;;;5021682;28;20042;-78
2024/03/28 00:21:28;;;;;;;0.00;0.00;;;15.30;68.20;;;;;;5025575;28;20041;-79
2024/03/28 00:23:53;;;;;;;0.00;0.00;;;15.30;68.90;;;;;;5025268;28;20092;-79
2024/03/28 00:26:19;;;;;;;0.10;0.10;;;15.30;68.30;;;;;;5022924;28;20042;-79
2024/03/28 00:28:45;;;;;;;0.10;0.10;;;15.30;68.50;;;;;;5023696;28;20042;-80
2024/03/28 00:31:10;;;;;;;0.10;0.10;;;15.30;68.30;;;;;;5018352;28;20131;-79
2024/03/28 00:33:36;;;;;;;0.10;0.10;;;15.30;68.40;;;;;;5030530;28;20030;-79
2024/03/28 00:36:01;;;;;;;0.10;0.10;;;15.30;68.30;;;;;;5018482;28;21694;-79
2024/03/28 00:38:27;;;;;;;0.10;0.10;;;15.30;68.30;;;;;;5017017;28;20052;-79
2024/03/28 00:40:54;;;;;;;0.20;0.20;;;15.30;68.40;;;;;;5015476;28;20095;-79
2024/03/28 00:43:20;;;;;;;0.10;0.10;;;15.30;68.20;;;;;;5013625;28;20073;-79
2024/03/28 00:45:45;;;;;;;0.00;0.00;;;15.30;68.40;;;;;;4977404;28;20081;-79
2024/03/28 00:48:11;;;;;;;0.00;0.00;;;15.30;68.60;;;;;;4980636;28;20053;-79
2024/03/28 00:50:37;;;;;;;0.10;0.10;;;15.30;68.60;;;;;;4984634;28;20054;-79
2024/03/28 00:53:03;;;;;;;0.10;0.10;;;15.30;68.60;;;;;;4992539;28;20050;-79
2024/03/28 00:55:28;;;;;;;0.10;0.10;;;15.30;68.70;;;;;;4999037;28;20042;-79
2024/03/28 00:57:54;;;;;;;0.05;0.05;;;15.30;68.60;;;;;;4997858;28;20100;-79
2024/03/28 01:00:20;;;;;;;0.05;0.05;;;15.30;68.50;;;;;;4996104;28;20113;-79
2024/03/28 01:02:45;;;;;;;0.20;0.20;;;15.30;68.60;;;;;;4997132;28;20049;-79
2024/03/28 01:05:11;;;;;;;0.10;0.10;;;15.30;68.60;;;;;;4997847;28;20030;-79
2024/03/28 01:07:37;;;;;;;0.10;0.10;;;15.30;68.70;;;;;;5001222;28;20083;-79
2024/03/28 01:10:03;;;;;;;0.08;0.08;;;15.30;68.60;;;;;;4968383;28;20145;-79
2024/03/28 01:12:29;;;;;;;0.90;0.60;;;15.30;68.80;;;;;;4991515;28;20050;-80
2024/03/28 01:14:54;;;;;;;0.20;0.20;;;15.30;68.80;;;;;;4991845;28;20427;-79
2024/03/28 01:17:20;;;;;;;0.10;0.10;;;15.30;69.40;;;;;;5007462;28;20038;-79
2024/03/28 01:19:45;;;;;;;0.00;0.00;;;15.30;69.40;;;;;;5005751;28;20053;-80
2024/03/28 01:22:11;;;;;;;0.00;0.00;;;15.30;69.20;;;;;;5005806;28;20034;-79
2024/03/28 01:24:37;;;;;;;0.00;0.00;;;15.30;69.00;;;;;;5010538;28;20119;-79
2024/03/28 01:27:03;;;;;;;0.10;0.10;;;15.30;69.10;;;;;;5002982;28;20527;-78
2024/03/28 01:29:29;;;;;;;0.00;0.00;;;15.30;69.00;;;;;;4988830;28;20579;-79
2024/03/28 01:31:54;;;;;;;0.03;0.00;;;15.20;68.80;;;;;;4989556;28;20129;-79
2024/03/28 01:34:21;;;;;;;0.10;0.00;;;15.20;68.90;;;;;;4997403;28;20041;-80
2024/03/28 01:36:46;;;;;;;0.03;0.03;;;15.20;68.60;;;;;;4986460;28;20095;-79
2024/03/28 01:39:12;;;;;;;0.10;0.10;;;15.20;69.00;;;;;;5004448;28;20046;-79
2024/03/28 01:41:37;;;;;;;0.10;0.10;;;15.20;68.60;;;;;;4971017;28;20040;-79
2024/03/28 01:44:03;;;;;;;0.10;0.10;;;15.30;68.60;;;;;;4968284;28;20041;-78
2024/03/28 01:46:28;;;;;;;0.10;0.10;;;15.20;68.60;;;;;;4992178;28;20259;-79
2024/03/28 01:48:54;;;;;;;0.10;0.05;;;15.20;68.20;;;;;;4958840;28;20034;-79
2024/03/28 01:51:20;;;;;;;0.10;0.00;;;15.20;68.10;;;;;;5010077;28;20034;-79
2024/03/28 01:53:46;;;;;;;0.10;0.10;;;15.20;68.00;;;;;;4973696;28;20699;-79
2024/03/28 01:56:15;;;;;;;0.10;0.00;;;15.20;68.00;;;;;;4966712;28;20039;-79
2024/03/28 01:58:41;;;;;;;0.03;0.03;;;15.20;68.00;;;;;;4975165;28;20503;-79
2024/03/28 02:01:07;;;;;;;0.10;0.10;;;15.20;68.20;;;;;;4972600;28;20046;-79
2024/03/28 02:03:33;;;;;;;0.03;0.00;;;15.20;68.10;;;;;;4988010;28;20530;-79
2024/03/28 02:05:59;;;;;;;0.05;0.05;;;15.10;68.00;;;;;;4989870;28;20408;-79
2024/03/28 02:08:27;;;;;;;0.00;0.00;;;15.20;68.20;;;;;;4983017;28;20034;-79
2024/03/28 02:10:53;;;;;;;0.03;0.03;;;15.20;68.50;;;;;;4983522;28;20136;-79
2024/03/28 02:13:18;;;;;;;0.00;0.00;;;15.20;68.10;;;;;;5000389;28;20129;-79
2024/03/28 02:15:44;;;;;;;0.00;0.00;;;15.20;68.20;;;;;;5001036;28;20048;-79
2024/03/28 02:18:09;;;;;;;0.10;0.10;;;15.20;68.30;;;;;;4999570;28;20046;-79
2024/03/28 02:20:35;;;;;;;0.00;0.00;;;15.20;68.50;;;;;;4985401;28;20480;-79
2024/03/28 02:23:00;;;;;;;0.10;0.10;;;15.10;68.50;;;;;;4985165;28;20022;-80
2024/03/28 02:25:26;;;;;;;0.00;0.00;;;15.10;68.20;;;;;;4977541;28;20049;-79
2024/03/28 02:27:52;;;;;;;0.10;0.10;;;15.10;68.20;;;;;;4988433;28;20041;-79
2024/03/28 02:30:17;;;;;;;0.35;0.10;;;15.10;68.10;;;;;;4991532;28;20531;-79
2024/03/28 02:32:43;;;;;;;0.00;0.00;;;15.10;68.00;;;;;;4990933;28;20087;-79
2024/03/28 02:35:09;;;;;;;0.00;0.00;;;15.20;68.00;;;;;;4999152;28;20065;-80
2024/03/28 02:37:34;;;;;;;0.03;0.03;;;15.20;68.10;;;;;;4975795;28;20037;-79
2024/03/28 02:40:01;;;;;;;0.00;0.00;;;15.20;68.00;;;;;;4992108;28;20105;-79
2024/03/28 02:42:27;;;;;;;0.00;0.00;;;15.10;67.90;;;;;;5004362;28;20512;-80
2024/03/28 02:44:52;;;;;;;0.03;0.00;;;15.20;67.80;;;;;;5001522;28;20136;-80
2024/03/28 02:47:18;;;;;;;0.00;0.00;;;15.20;67.90;;;;;;4993751;28;20038;-79
2024/03/28 02:49:44;;;;;;;0.10;0.08;;;15.20;67.90;;;;;;5027081;28;20049;-79
2024/03/28 02:52:09;;;;;;;0.00;0.00;;;15.10;67.70;;;;;;5034760;28;20077;-79
2024/03/28 02:54:35;;;;;;;0.00;0.00;;;15.10;67.70;;;;;;5036928;28;20033;-79
2024/03/28 02:57:02;;;;;;;0.00;0.00;;;15.10;67.70;;;;;;5018988;28;20041;-79
2024/03/28 02:59:28;;;;;;;0.10;0.10;;;15.20;67.80;;;;;;5011268;28;20072;-79
2024/03/28 03:01:53;;;;;;;0.00;0.00;;;15.10;67.80;;;;;;5019469;28;20041;-79
2024/03/28 03:04:19;;;;;;;0.10;0.10;;;15.10;67.70;;;;;;5030409;28;20160;-79
2024/03/28 03:06:44;;;;;;;0.10;0.00;;;15.10;67.70;;;;;;5030418;28;20119;-79
2024/03/28 03:09:10;;;;;;;0.10;0.08;;;15.10;67.80;;;;;;5016410;28;20053;-78
2024/03/28 03:11:36;;;;;;;0.00;0.00;;;15.10;67.70;;;;;;5033829;28;20132;-79
2024/03/28 03:14:01;;;;;;;0.10;0.10;;;15.10;67.70;;;;;;5033038;28;20033;-79
2024/03/28 03:16:27;;;;;;;0.05;0.05;;;15.10;67.60;;;;;;5008612;28;20511;-79
2024/03/28 03:18:52;;;;;;;0.00;0.00;;;15.10;67.60;;;;;;5035226;28;20049;-79
2024/03/28 03:21:18;;;;;;;0.03;0.00;;;15.10;67.70;;;;;;5035993;28;20044;-79
2024/03/28 03:23:49;;;;;;;0.10;0.10;;;15.10;67.70;;;;;;5035967;28;20117;-79
2024/03/28 03:26:24;;;;;;;0.00;0.00;;;15.10;67.70;;;;;;5031134;28;20045;-79
2024/03/28 03:34:37;;;;;;;0.00;0.00;;;15.10;67.60;;;;;;5030764;28;20150;-79
2024/03/28 03:37:23;;;;;;;0.00;0.00;;;15.00;67.70;;;;;;5018656;28;20068;-79
2024/03/28 03:39:55;;;;;;;0.00;0.00;;;15.00;67.60;;;;;;5032546;28;20053;-79
2024/03/28 03:42:21;;;;;;;0.00;0.00;;;15.00;67.50;;;;;;5018427;28;20498;-79
2024/03/28 03:44:47;;;;;;;0.20;0.00;;;15.10;67.50;;;;;;5023404;28;20111;-79
2024/03/28 03:47:12;;;;;;;0.00;0.00;;;15.10;67.60;;;;;;4983042;28;20424;-78
2024/03/28 03:49:44;;;;;;;0.00;0.00;;;15.00;67.60;;;;;;5013027;28;20070;-79
2024/03/28 03:52:10;;;;;;;0.00;0.00;;;15.00;67.60;;;;;;4998052;28;20049;-79
2024/03/28 03:54:37;;;;;;;0.00;0.00;;;15.00;67.70;;;;;;5009768;28;20069;-79
2024/03/28 03:57:02;;;;;;;0.10;0.00;;;15.00;67.60;;;;;;4969374;28;20069;-80
2024/03/28 03:59:28;;;;;;;0.00;0.00;;;15.00;67.70;;;;;;4989548;28;20492;-80
2024/03/28 04:01:53;;;;;;;0.10;0.10;;;15.00;67.70;;;;;;4994321;28;20042;-79
2024/03/28 04:04:19;;;;;;;0.10;0.10;;;15.10;67.60;;;;;;4980558;28;20033;-80
2024/03/28 04:06:45;;;;;;;0.10;0.10;;;15.10;67.70;;;;;;4985462;28;20038;-79
2024/03/28 04:09:11;;;;;;;0.00;0.00;;;15.00;67.70;;;;;;5007204;28;20141;-79
2024/03/28 04:11:37;;;;;;;0.00;0.00;;;15.00;67.70;;;;;;5001868;28;20045;-79
2024/03/28 04:14:03;;;;;;;0.85;0.00;;;15.10;67.60;;;;;;4979060;28;20038;-79
2024/03/28 04:16:28;;;;;;;0.05;0.05;;;15.10;67.50;;;;;;4986316;28;20420;-79
2024/03/28 04:18:54;;;;;;;0.10;0.00;;;15.00;67.50;;;;;;4987170;28;20042;-80
2024/03/28 04:21:20;;;;;;;0.00;0.00;;;15.00;67.80;;;;;;4989180;28;20093;-79
2024/03/28 04:23:45;;;;;;;0.08;0.08;;;15.10;67.60;;;;;;4988487;28;20030;-79
2024/03/28 04:26:11;;;;;;;0.20;0.10;;;15.00;67.50;;;;;;4991390;28;20042;-79
2024/03/28 04:28:36;;;;;;;0.20;0.00;;;15.00;67.50;;;;;;5001567;28;20034;-80
2024/03/28 04:31:02;;;;;;;0.10;0.10;;;15.00;67.60;;;;;;5001573;28;20515;-79
2024/03/28 04:33:27;;;;;;;0.10;0.10;;;15.00;67.50;;;;;;4968024;28;20053;-80
2024/03/28 04:35:53;;;;;;;0.00;0.00;;;15.00;67.70;;;;;;4999311;28;20067;-79
2024/03/28 04:38:19;;;;;;;0.08;0.00;;;15.00;67.80;;;;;;4986016;28;20073;-79
2024/03/28 04:40:45;;;;;;;0.00;0.00;;;15.00;67.80;;;;;;4981072;28;20046;-79
2024/03/28 04:43:11;;;;;;;0.00;0.00;;;15.00;67.70;;;;;;4989961;28;20800;-78
2024/03/28 04:45:37;;;;;;;0.10;0.10;;;15.00;68.40;;;;;;5016770;28;20089;-79
2024/03/28 04:48:03;;;;;;;0.00;0.00;;;15.00;68.30;;;;;;4996247;28;20061;-79
2024/03/28 04:50:28;;;;;;;0.00;0.00;;;15.00;68.20;;;;;;4974279;28;20045;-79
2024/03/28 04:52:54;;;;;;;0.00;0.00;;;15.00;68.40;;;;;;4995384;28;20423;-80
2024/03/28 04:55:20;;;;;;;0.20;0.10;;;15.10;68.70;;;;;;5017063;28;20042;-78
2024/03/28 04:57:46;;;;;;;0.10;0.00;;;15.00;68.60;;;;;;5030289;28;20517;-79
2024/03/28 05:00:12;;;;;;;0.00;0.00;;;15.00;68.70;;;;;;5003636;28;20061;-79
2024/03/28 05:02:38;;;;;;;0.10;0.10;;;15.00;68.60;;;;;;5000738;28;20053;-79
2024/03/28 05:05:08;;;;;;;0.10;0.10;;;15.00;68.60;;;;;;5019510;28;20042;-79
2024/03/28 05:07:33;;;;;;;0.00;0.00;;;15.00;68.30;;;;;;5000364;28;20121;-79
2024/03/28 05:09:59;;;;;;;0.08;0.00;;;15.00;68.10;;;;;;5003145;28;20128;-79
2024/03/28 05:12:24;;;;;;;0.10;0.05;;;15.00;68.20;;;;;;5014671;28;20054;-79
2024/03/28 05:14:51;;;;;;;0.10;0.10;;;15.00;68.10;;;;;;5002930;28;20504;-80
2024/03/28 05:17:17;;;;;;;0.00;0.00;;;15.00;68.20;;;;;;4999556;28;20507;-78
2024/03/28 05:19:43;;;;;;;0.00;0.00;;;15.00;68.40;;;;;;5011600;28;20140;-79
2024/03/28 05:22:09;;;;;;;0.00;0.00;;;15.00;68.60;;;;;;5005638;28;20109;-80
2024/03/28 05:24:34;;;;;;;0.25;0.10;;;14.90;67.90;;;;;;5004498;28;20406;-79
2024/03/28 05:27:00;;;;;;;0.00;0.00;;;14.90;68.00;;;;;;5008139;28;20747;-80
2024/03/28 05:29:26;;;;;;;0.00;0.00;;;14.90;67.90;;;;;;5028386;28;20099;-80
2024/03/28 05:31:51;;;;;;;0.00;0.00;;;15.00;67.80;;;;;;5028126;28;20120;-79
2024/03/28 05:34:17;;;;;;;0.00;0.00;;;14.90;68.00;;;;;;5027266;28;20450;-78
2024/03/28 05:36:42;;;;;;;0.10;0.00;;;14.90;67.90;;;;;;5028949;28;20132;-79
2024/03/28 05:39:08;;;;;;;0.05;0.00;;;15.00;67.80;;;;;;5006680;28;20445;-79
2024/03/28 05:41:34;;;;;;;0.00;0.00;;;14.90;67.70;;;;;;5001703;28;20042;-79
2024/03/28 05:44:00;;;;;;;0.10;0.00;;;15.00;68.10;;;;;;4981373;28;20049;-79
2024/03/28 05:46:26;;;;;;;0.00;0.00;;;14.90;68.00;;;;;;5006704;28;20041;-79
2024/03/28 05:48:52;;;;;;;0.10;0.10;;;15.00;67.80;;;;;;5027464;28;20040;-79
2024/03/28 05:51:17;;;;;;;0.25;0.10;;;14.90;67.60;;;;;;5026859;28;20069;-79
2024/03/28 05:53:45;;;;;;;0.10;0.00;;;14.90;67.30;;;;;;5027758;28;20049;-79
2024/03/28 05:56:12;;;;;;;0.10;0.10;;;14.90;67.40;;;;;;5006367;28;20050;-79
2024/03/28 05:58:37;;;;;;;0.00;0.00;;;14.90;67.30;;;;;;5027368;28;20051;-79
2024/03/28 06:01:04;;;;;;;0.13;0.10;;;14.90;67.50;;;;;;5006299;28;20041;-79
2024/03/28 06:03:29;;;;;;;0.05;0.05;;;14.90;67.50;;;;;;5020335;28;20138;-79
2024/03/28 06:05:55;;;;;;;0.10;0.00;;;14.90;67.40;;;;;;5027329;28;20045;-79
2024/03/28 06:08:20;;;;;;;0.30;0.10;;;14.90;67.50;;;;;;5008769;28;20042;-79
2024/03/28 06:10:46;;;;;;;0.20;0.10;;;14.90;67.50;;;;;;5019836;28;20050;-79
2024/03/28 06:13:12;;;;;;;0.20;0.00;;;14.90;67.30;;;;;;5000784;28;20041;-79
2024/03/28 06:15:37;;;;;;;0.10;0.10;;;14.90;67.40;;;;;;5015564;28;21700;-80
2024/03/28 06:18:03;;;;;;;0.00;0.00;;;14.90;67.30;;;;;;5007774;28;20055;-80
2024/03/28 06:20:29;;;;;;;0.00;0.00;;;14.90;67.30;;;;;;4995651;28;20030;-79
2024/03/28 06:22:55;;;;;;;0.08;0.00;;;14.90;67.30;;;;;;5023979;28;20858;-79
2024/03/28 06:25:21;;;;;;;0.00;0.00;;;14.90;67.30;;;;;;5008847;28;20406;-79
2024/03/28 06:27:46;;;;;;;0.00;0.00;;;14.90;67.20;;;;;;5027845;28;20052;-79
2024/03/28 06:30:12;;;;;;;0.10;0.10;;;14.90;67.30;;;;;;5010558;28;20058;-79
2024/03/28 06:32:38;;;;;;;0.47;0.10;;;14.90;67.30;;;;;;4981905;28;20112;-79
2024/03/28 06:35:04;;;;;;;0.00;0.00;;;14.90;67.30;;;;;;5027400;28;20033;-79
2024/03/28 06:37:29;;;;;;;0.05;0.00;;;14.90;67.30;;;;;;5003690;28;20565;-79
2024/03/28 06:39:55;;;;;;;0.00;0.00;;;14.90;67.30;;;;;;5006965;28;20058;-80
2024/03/28 06:42:21;;;;;;;0.13;0.10;;;14.90;67.30;;;;;;5020532;28;20104;-78
2024/03/28 06:44:52;;;;;;;0.20;0.20;;;14.90;67.20;;;;;;4978707;28;20049;-79
2024/03/28 06:47:18;;;;;;;0.05;0.05;;;14.90;67.20;;;;;;5012119;28;20041;-79
2024/03/28 06:49:43;;;;;;;0.35;0.28;;;14.90;67.20;;;;;;4986217;28;20061;-79
2024/03/28 06:52:09;;;;;;;0.10;0.00;;;14.90;67.40;;;;;;5020546;28;20052;-79
2024/03/28 06:54:35;;;;;;;0.10;0.00;;;14.90;67.20;;;;;;5007897;28;20585;-79
2024/03/28 06:57:01;;;;;;;0.10;0.00;;;14.90;67.40;;;;;;5028529;28;20075;-79
2024/03/28 06:59:26;;;;;;;0.10;0.10;;;14.90;67.30;;;;;;5028212;28;20468;-79
2024/03/28 07:01:52;;;;;;;0.17;0.00;;;14.90;67.30;;;;;;5020526;28;20048;-79
2024/03/28 07:04:17;;;;;;;0.10;0.10;;;14.90;67.30;;;;;;5019277;28;20041;-79
2024/03/28 07:06:43;;;;;;;0.10;0.10;;;14.90;67.30;;;;;;5005582;28;20058;-79
2024/03/28 07:09:09;;;;;;;0.03;0.03;;;14.90;67.20;;;;;;5022193;28;20515;-79
2024/03/28 07:11:34;;;;;;;0.10;0.10;;;14.90;67.30;;;;;;5025726;28;20526;-79
2024/03/28 07:14:00;;;;;;;0.00;0.00;;;14.90;67.30;;;;;;5005652;28;20473;-79
2024/03/28 07:16:26;;;;;;;0.08;0.00;;;14.90;67.30;;;;;;4993315;28;20051;-79
2024/03/28 07:18:52;;;;;;;0.10;0.10;;;14.90;67.30;;;;;;5018456;28;20121;-79
2024/03/28 07:21:18;;;;;;;0.10;0.10;;;14.90;67.40;;;;;;5015527;28;20034;-79
2024/03/28 07:23:43;;;;;;;0.20;0.10;;;14.90;67.40;;;;;;5020030;28;22178;-79
2024/03/28 07:26:09;;;;;;;0.00;0.00;;;14.90;67.60;;;;;;4990583;28;20029;-79
2024/03/28 07:28:34;;;;;;;0.10;0.10;;;14.90;67.60;;;;;;4997439;28;20026;-80
2024/03/28 07:31:00;;;;;;;0.10;0.00;;;14.90;67.70;;;;;;4996625;28;20046;-79
2024/03/28 07:33:26;;;;;;;0.00;0.00;;;14.90;67.70;;;;;;5010627;28;20050;-79
2024/03/28 07:35:51;;;;;;;0.20;0.10;;;14.90;67.60;;;;;;5024824;28;20467;-79
2024/03/28 07:38:17;;;;;;;0.25;0.20;;;14.90;67.60;;;;;;5005028;28;20125;-79
2024/03/28 07:40:49;;;;;;;0.35;0.10;;;14.90;67.40;;;;;;4997455;28;20034;-79
2024/03/28 07:43:15;;;;;;;0.30;0.10;;;14.90;67.60;;;;;;5022626;28;20583;-79
2024/03/28 07:45:41;;;;;;;0.00;0.00;;;14.90;67.60;;;;;;5008912;28;20128;-79
2024/03/28 07:48:08;;;;;;;0.00;0.00;;;15.00;67.60;;;;;;4973629;28;20122;-79
2024/03/28 07:50:34;;;;;;;0.00;0.00;;;15.00;67.50;;;;;;4995336;28;20073;-79
2024/03/28 07:52:59;;;;;;;0.22;0.20;;;15.00;67.60;;;;;;5002848;28;20113;-79
2024/03/28 07:55:25;;;;;;;0.30;0.10;;;15.00;68.10;;;;;;5011442;28;20053;-78
2024/03/28 07:57:51;;;;;;;0.00;0.00;;;15.00;68.20;;;;;;4999787;28;20455;-79
2024/03/28 08:00:17;;;;;;;0.00;0.00;;;15.00;68.20;;;;;;5006114;28;20128;-79
2024/03/28 08:02:44;;;;;;;0.08;0.08;;;15.00;68.00;;;;;;5008951;28;20053;-79
2024/03/28 08:05:11;;;;;;;0.10;0.03;;;15.00;68.00;;;;;;4989463;28;20034;-79
2024/03/28 08:07:36;;;;;;;0.10;0.00;;;15.00;68.00;;;;;;4969785;28;20034;-79
2024/03/28 08:10:02;;;;;;;0.00;0.00;;;15.00;68.30;;;;;;5001004;28;20054;-79
2024/03/28 08:12:28;;;;;;;0.22;0.00;;;15.00;68.10;;;;;;4994294;28;20045;-79
2024/03/28 08:14:54;;;;;;;0.10;0.03;;;15.00;68.00;;;;;;4990431;28;20084;-79
2024/03/28 08:17:19;;;;;;;0.10;0.00;;;15.00;68.10;;;;;;4989911;28;20029;-79
2024/03/28 08:19:45;;;;;;;0.00;0.00;;;15.00;68.40;;;;;;5008217;28;20116;-79
2024/03/28 08:22:11;;;;;;;0.13;0.00;;;15.10;68.60;;;;;;4980684;28;20054;-79
2024/03/28 08:24:37;;;;;;;0.15;0.15;;;15.10;68.50;;;;;;4972988;28;20408;-79
2024/03/28 08:27:04;;;;;;;0.20;0.10;;;15.10;68.70;;;;;;5010054;28;20132;-79
2024/03/28 08:29:29;;;;;;;0.10;0.00;;;15.10;68.90;;;;;;5012956;28;20052;-79
2024/03/28 08:31:56;;;;;;;0.10;0.10;;;15.10;68.80;;;;;;4973490;28;20038;-79
2024/03/28 08:34:21;;;;;;;0.00;0.00;;;15.20;69.20;;;;;;5007707;28;20041;-79
2024/03/28 08:36:47;;;;;;;0.82;0.10;;;15.20;68.80;;;;;;4989247;28;20042;-79
2024/03/28 08:39:13;;;;;;;0.10;0.10;;;15.20;68.60;;;;;;4992129;28;20427;-79
2024/03/28 08:41:40;;;;;;;0.47;0.10;;;15.20;69.10;;;;;;5008852;28;20516;-79
2024/03/28 08:44:08;;;;;;;0.10;0.10;;;15.20;69.10;;;;;;5008144;28;20038;-79
2024/03/28 08:46:34;;;;;;;0.20;0.10;;;15.20;68.60;;;;;;4972684;28;20049;-79
2024/03/28 08:49:00;;;;;;;0.10;0.10;;;15.30;69.10;;;;;;5010407;28;20046;-79
2024/03/28 08:51:26;;;;;;;0.00;0.00;;;15.30;69.00;;;;;;5006828;28;20054;-79
2024/03/28 08:53:52;;;;;;;0.00;0.00;;;15.30;69.00;;;;;;5008177;28;20125;-79
2024/03/28 08:56:20;;;;;;;0.00;0.00;;;15.30;68.80;;;;;;4995206;28;20117;-79
2024/03/28 08:58:45;;;;;;;0.13;0.10;;;15.40;69.10;;;;;;5007331;28;20487;-79
2024/03/28 09:01:13;;;;;;;0.10;0.10;;;15.40;68.90;;;;;;4991753;28;20046;-79
2024/03/28 09:03:39;;;;;;;0.15;0.08;;;15.40;69.00;;;;;;4978192;28;20061;-79
2024/03/28 09:06:09;;;;;;;0.25;0.10;;;15.50;69.30;;;;;;4991168;28;20076;-79
2024/03/28 09:08:38;;;;;;;0.17;0.08;;;15.50;69.00;;;;;;5011497;28;20030;-79
2024/03/28 09:11:08;;;;;;;0.30;0.20;;;15.50;69.20;;;;;;5007228;28;20056;-79
2024/03/28 09:13:34;;;;;;;0.20;0.17;;;15.50;69.20;;;;;;4969898;28;20045;-79
2024/03/28 09:15:59;;;;;;;0.28;0.10;;;15.50;69.00;;;;;;4990370;28;20030;-79
2024/03/28 09:18:25;;;;;;;0.30;0.20;;;15.50;69.00;;;;;;4995876;28;20474;-79
2024/03/28 09:20:51;;;;;;;0.00;0.00;;;15.50;68.80;;;;;;4991323;28;20045;-79
2024/03/28 09:23:18;;;;;;;0.10;0.10;;;15.50;68.70;;;;;;4995218;28;20046;-79
2024/03/28 09:25:43;;;;;;;0.15;0.10;;;15.50;69.20;;;;;;4989997;28;20392;-79
2024/03/28 09:28:09;;;;;;;0.30;0.20;;;15.50;69.30;;;;;;4992339;28;20026;-79
2024/03/28 09:30:34;;;;;;;0.20;0.10;;;15.60;69.50;;;;;;5010438;28;20042;-79
2024/03/28 09:33:00;;;;;;;0.47;0.40;;;15.60;69.50;;;;;;4958744;28;20045;-79
2024/03/28 09:35:25;;;;;;;0.20;0.20;;;15.60;69.20;;;;;;4972795;28;20407;-79
2024/03/28 09:37:51;;;;;;;0.13;0.10;;;15.60;69.00;;;;;;4990961;28;20121;-79
2024/03/28 09:40:17;;;;;;;0.38;0.20;;;15.60;69.30;;;;;;4972439;28;20574;-79
2024/03/28 09:42:44;;;;;;;0.25;0.10;;;15.70;69.00;;;;;;4991101;28;20541;-79
2024/03/28 09:45:10;;;;;;;0.40;0.30;;;15.70;69.60;;;;;;4973800;28;20066;-79
2024/03/28 09:47:36;;;;;;;0.20;0.10;;;15.70;69.70;;;;;;4990076;28;20508;-79
2024/03/28 09:50:01;;;;;;;0.17;0.08;;;15.80;69.10;;;;;;4972004;28;20048;-79
2024/03/28 09:52:28;;;;;;;0.40;0.30;;;15.80;69.00;;;;;;4952318;28;20072;-79
2024/03/28 09:54:54;;;;;;;0.30;0.20;;;15.90;68.80;;;;;;5003135;28;20141;-79
2024/03/28 09:57:20;;;;;;;0.40;0.15;;;15.80;68.60;;;;;;4990165;28;20114;-79
2024/03/28 09:59:45;;;;;;;0.20;0.13;;;15.90;68.60;;;;;;4989104;28;20198;-79
2024/03/28 10:02:17;;;;;;;0.15;0.10;;;15.90;68.50;;;;;;4974984;28;20042;-79
2024/03/28 10:04:54;;;;;;;0.20;0.15;;;15.90;68.60;;;;;;4997691;28;20046;-79
2024/03/28 10:07:21;;;;;;;0.85;0.32;;;15.90;69.70;;;;;;4987797;28;20033;-79
2024/03/28 10:09:47;;;;;;;0.73;0.20;;;16.00;68.90;;;;;;4972783;28;20100;-79
2024/03/28 10:12:13;;;;;;;0.30;0.20;;;16.10;68.80;;;;;;4969767;28;20045;-79
2024/03/28 10:14:42;;;;;;;0.47;0.28;;;16.10;68.60;;;;;;5001985;28;20041;-78
2024/03/28 10:17:09;;;;;;;0.20;0.10;;;16.10;68.30;;;;;;4970639;28;20121;-78
2024/03/28 10:19:39;;;;;;;0.30;0.20;;;16.10;68.20;;;;;;5001181;28;20112;-79
2024/03/28 10:22:09;;;;;;;0.45;0.28;;;16.10;68.10;;;;;;4988909;28;20137;-79
2024/03/28 10:24:36;;;;;;;1.38;0.30;;;16.20;68.20;;;;;;5004754;28;20042;-78
2024/03/28 10:27:15;;;;;;;0.30;0.20;;;16.20;68.30;;;;;;4988985;28;20105;-79
2024/03/28 10:29:54;;;;;;;0.40;0.20;;;16.10;68.20;;;;;;4968566;28;20046;-79
2024/03/28 10:32:23;;;;;;;0.30;0.20;;;16.20;68.40;;;;;;5001881;28;20483;-79
2024/03/28 10:34:49;;;;;;;0.10;0.10;;;16.30;68.30;;;;;;4984792;28;20037;-79
2024/03/28 10:37:21;;;;;;;0.43;0.43;;;16.30;68.50;;;;;;5004628;28;20046;-79
2024/03/28 10:39:47;;;;;;;0.57;0.20;;;16.30;68.60;;;;;;5001102;28;20049;-79
2024/03/28 10:42:16;;;;;;;1.40;0.20;;;16.30;68.50;;;;;;4983234;28;20054;-79
2024/03/28 10:44:48;;;;;;;0.30;0.20;;;16.30;68.10;;;;;;5018588;28;20422;-79
2024/03/28 10:47:15;;;;;;;0.28;0.13;;;16.30;68.60;;;;;;5012844;28;20058;-79
2024/03/28 10:49:54;;;;;;;0.63;0.10;;;16.30;68.20;;;;;;4991595;28;20041;-79
2024/03/28 10:52:29;;;;;;;0.52;0.20;;;16.30;68.00;;;;;;4984088;28;20046;-79
2024/03/28 10:55:04;;;;;;;0.30;0.30;;;16.30;68.00;;;;;;5019943;28;20144;-79
2024/03/28 10:57:30;;;;;;;0.70;0.20;;;16.30;68.30;;;;;;5037182;28;20090;-79
2024/03/28 10:59:56;;;;;;;0.60;0.30;;;16.30;68.10;;;;;;4989956;28;20044;-79
2024/03/28 11:02:22;;;;;;;0.40;0.25;;;16.30;68.30;;;;;;5007920;28;20037;-79
2024/03/28 11:04:47;;;;;;;0.95;0.40;;;16.30;68.40;;;;;;5008500;28;20384;-79
2024/03/28 11:07:13;;;;;;;0.80;0.30;;;16.30;68.40;;;;;;4992649;28;20030;-79
2024/03/28 11:09:39;;;;;;;0.30;0.25;;;16.30;68.60;;;;;;4993702;28;20056;-79
2024/03/28 11:12:06;;;;;;;1.23;0.30;;;16.30;68.20;;;;;;5022687;28;20099;-79
2024/03/28 11:14:33;;;;;;;0.40;0.40;;;16.30;68.70;;;;;;5006671;28;20510;-79
2024/03/28 11:17:05;;;;;;;0.50;0.20;;;16.20;69.10;;;;;;4990356;28;20128;-79
2024/03/28 11:19:31;;;;;;;0.30;0.30;;;16.20;69.00;;;;;;5026911;28;20200;-79
2024/03/28 11:21:57;;;;;;;0.43;0.20;;;16.10;69.00;;;;;;5000978;28;20587;-79
2024/03/28 11:24:28;;;;;;;0.55;0.45;;;16.20;68.70;;;;;;5012379;28;20203;-79
2024/03/28 11:26:54;;;;;;;0.28;0.20;;;16.20;68.90;;;;;;4991040;28;20076;-79
2024/03/28 11:29:23;;;;;;;0.90;0.30;;;16.10;69.30;;;;;;4988057;28;20080;-79
2024/03/28 11:31:58;;;;;;;0.25;0.20;;;16.10;69.30;;;;;;4998419;28;20041;-79
2024/03/28 11:34:25;;;;;;;0.32;0.32;;;16.10;69.50;;;;;;5015490;28;20104;-79
2024/03/28 11:36:52;;;;;;;0.30;0.17;;;16.10;69.60;;;;;;5017643;28;20523;-79
2024/03/28 11:39:18;;;;;;;0.60;0.28;;;16.20;69.40;;;;;;5015523;28;20514;-79
2024/03/28 11:41:43;;;;;;;0.43;0.30;;;16.20;69.30;;;;;;4989694;28;20025;-79
2024/03/28 11:44:09;;;;;;;0.68;0.40;;;16.20;69.50;;;;;;5008923;28;20067;-79
2024/03/28 11:46:35;;;;;;;0.65;0.20;;;16.20;69.30;;;;;;4998302;28;20026;-79
2024/03/28 11:49:00;;;;;;;0.55;0.40;;;16.20;69.40;;;;;;5015470;28;20053;-79
2024/03/28 11:51:26;;;;;;;0.20;0.10;;;16.20;69.50;;;;;;5013967;28;20073;-79
2024/03/28 11:53:53;;;;;;;0.50;0.30;;;16.20;70.70;;;;;;5023791;28;20452;-79
2024/03/28 11:56:21;;;;;;;0.40;0.32;;;16.20;69.80;;;;;;4997824;28;20439;-79
2024/03/28 11:58:46;;;;;;;0.70;0.45;;;16.20;70.30;;;;;;4982080;28;20074;-79
2024/03/28 12:01:12;;;;;;;0.35;0.20;;;16.20;71.30;;;;;;5003136;28;20554;-79
2024/03/28 12:03:38;;;;;;;0.63;0.40;;;16.20;69.80;;;;;;5001791;28;20530;-79
2024/03/28 12:06:03;;;;;;;0.30;0.22;;;16.20;67.10;;;;;;5002502;28;20049;-79
2024/03/28 12:08:30;;;;;;;0.43;0.28;;;16.20;66.90;;;;;;5007249;28;20457;-79
2024/03/28 12:11:06;;;;;;;0.25;0.22;;;16.20;67.00;;;;;;4989393;28;20046;-79
2024/03/28 12:13:32;;;;;;;0.63;0.20;;;16.20;67.00;;;;;;5016856;28;20057;-79
2024/03/28 12:15:59;;;;;;;0.50;0.35;;;16.30;68.40;;;;;;5021469;28;20056;-79
2024/03/28 12:18:25;;;;;;;0.65;0.40;;;16.30;69.50;;;;;;5026912;28;20041;-79
2024/03/28 12:21:04;;;;;;;0.20;0.20;;;16.30;71.20;;;;;;4990562;28;20585;-79
2024/03/28 12:23:30;;;;;;;0.50;0.30;;;16.30;71.30;;;;;;5009699;28;20041;-79
2024/03/28 12:25:56;;;;;;;0.20;0.20;;;16.30;71.60;;;;;;4990569;28;20033;-79
2024/03/28 12:28:22;;;;;;;0.50;0.20;;;16.20;71.70;;;;;;4990641;28;20515;-79
2024/03/28 12:30:49;;;;;;;0.90;0.22;;;16.30;72.30;;;;;;5008878;28;20057;-79
2024/03/28 12:33:16;;;;;;;0.30;0.20;;;16.30;70.70;;;;;;5008939;28;20050;-79
2024/03/28 12:35:42;;;;;;;0.52;0.30;;;16.40;69.50;;;;;;5025259;28;20068;-78
2024/03/28 12:38:12;;;;;;;0.60;0.20;;;16.30;70.30;;;;;;4986553;28;20065;-78
2024/03/28 12:40:43;;;;;;;0.60;0.20;;;16.30;70.40;;;;;;5006558;28;20049;-79
2024/03/28 12:43:12;;;;;;;0.50;0.20;;;16.30;71.00;;;;;;5025484;28;20759;-79
2024/03/28 12:45:38;;;;;;;0.25;0.20;;;16.30;72.90;;;;;;5023866;28;20580;-79
2024/03/28 12:48:05;;;;;;;0.63;0.40;;;16.40;75.60;;;;;;5006975;28;20054;-79
2024/03/28 12:50:32;;;;;;;0.50;0.40;;;16.30;75.90;;;;;;5018262;28;20080;-79